Steady Brook, Canada
Current Conditions -  °F | °C
As of 8:45 AM on Thursday 27 Nov 2014 (Local Time) from CYDF Reporting Station
Light Snow Light Snow  
Wind Chill: 20°   Ceiling: 300
Heat Index: 28°   Visibility: 0.75mi
Dew Point: 28°   Wind: 9mph
Humidity: 100%   Direction: 50°NE
Pressure: 29.89"   Gusts: NA
Location:  48.97°N, 57.8°W
Report Text: CYDF 271145Z 05008KT 3/4SM -SN VV003 M02/M02 A2989 RMK SN8 PRESFR SLP124
Loading
Personal Weather Stations






























Interactive Weather Map New forecast layout! Learn more

10-Day Weather Forecast

Advertisements
Track Severe Weather on mobile